Kezdőlap
METAR-TAF:

METAR-TAF

Repülőterek :

Huntsville, Alabama, Amerikai Egyesült Államok

földrajzi szélesség: 34-51-41N, földrajzi hosszúság: 086-33-26W, magasság: 230 m

Jelenlegi meteorológiai megfigyelések

A jelentés 38 perccel ezelõtt készült, 09:15 UTC
Szélcsend
Hőmérséklet 23°C
Páratartalom 100%
Légköri nyomás 1018 hPa
Látótávolság: 16.1 km
Borult 800 lábon

METAR: KMDQ 210915Z AUTO 00000KT 10SM OVC008 23/23 A3005 RMK A02 LTG DSNT E T02320226

Idő: 04:53 (09:53 UTC)


TAF: hiányzik

Meteorológiai megfigyelések és előrejelzések több, mint 4000 repülőtéren (METAR és TAF jelentéseket).

A térképen piros és sárga pontok jelzik az elérhető meteorológiai állomásokat.

Mozgassa az egeret a pont fölött, hogy megjelenjen az állomás neve.

Azután kattintson az időjárási megfigyelések és előrejelzések megtekintéséhez.

A térkép megváltoztatása: kattintson a fekete keresztel jelölt zöld gombra ráközelítéshez, a vonallal jelölt zöld gombra távolításhoz, vagy a zöld nyilakra a szomszédos térképek eléréséhez.


METAR-TAF: